Terminal Aerodrome Forecast
Issued by NWS Twin Cities, MN

Home | Current Version | Previous Version | Graphics & Text | Print | Product List | Glossary On
Versions: 1 2 3 4 5 6 7 8 9 10 11 12 13 14 15 16 17 18 19 20
000
FTUS43 KMPX 280900 AAA
TAFSTC
TAF AMD
KSTC 280906Z 2809/2906 13007KT 6SM -SN BR SCT025 OVC060
      TEMPO 2814/2816 -FZDZSN OVC025
     FM281600 13006KT 6SM BR OVC012
     FM281900 11006KT P6SM OVC020
     FM290100 13005KT P6SM OVC030 PROB30 2901/2906 5SM -PL BR=

USA.gov is the U.S. government's official web portal to all federal, state and local government web resources and services.